Daily Tabular Data
[Select Refresh to Update]


12/9/17
Time         Wind Dir   Wind Spd  Wind Gust     Hum In   Humidity    Temp In       Temp  Raw Barom   Tot Rain Wind Chill Heat Ix In Heat Index  Dew Point  DailyRain   HourRain   RainRate
                            mph        mph          %          %         F         F         in         in         F         F         F         F         in         in      in/hr
12:00am           204          0          1         24         25       71.9       61.2      29.37       0.10       61.2       70.7       60.1       25.1       0.00       0.00      0.000
12:30am            93          2          4         24         25       71.8       59.3      29.37       0.10       59.3       70.6       58.2       23.5       0.00       0.00      0.000
1:00am            109          0          3         24         24       71.6       58.2      29.37       0.10       58.2       70.4       57.0       21.6       0.00       0.00      0.000
1:30am             80          0          2         24         27       71.5       57.3      29.37       0.10       57.3       70.3       56.3       23.6       0.00       0.00      0.000
2:00am             60          0          5         24         23       71.5       59.2      29.36       0.10       59.2       70.3       58.0       21.4       0.00       0.00      0.000
2:30am            271          0          7         24         24       71.4       61.0      29.35       0.10       61.0       70.2       59.8       24.0       0.00       0.00      0.000
3:00am            318          0         10         25         14       71.4       69.9      29.34       0.10       69.9       70.3       68.2       18.6       0.00       0.00      0.000
3:30am            128          1          4         25         21       71.3       63.4      29.34       0.10       63.4       70.2       62.0       22.8       0.00       0.00      0.000
4:00am            128          0          4         25         21       71.2       62.5      29.35       0.10       62.5       70.1       61.1       22.1       0.00       0.00      0.000
4:30am             69          0          3         25         21       71.2       60.5      29.34       0.10       60.5       70.1       59.1       20.4       0.00       0.00      0.000
5:00am             87          0          2         24         23       71.0       59.5      29.35       0.10       59.5       69.8       58.3       21.7       0.00       0.00      0.000
5:30am            119          1          2         25         21       71.0       61.8      29.34       0.10       61.8       69.9       60.4       21.5       0.00       0.00      0.000
6:00am            103          0          4         24         18       71.0       65.1      29.35       0.10       65.1       69.8       63.6       20.6       0.00       0.00      0.000
6:30am             51          0          6         24         19       70.9       61.4      29.34       0.10       61.4       69.7       59.9       18.8       0.00       0.00      0.000
7:00am             72          2          6         25         17       70.8       67.7      29.35       0.10       67.7       69.7       66.1       21.4       0.00       0.00      0.000
7:30am            345          0          6         24         14       70.7       69.7      29.35       0.10       69.7       69.5       68.0       18.4       0.00       0.00      0.000
8:00am            109          3          4         25         21       70.8       67.9      29.36       0.10       67.9       69.7       66.5       26.6       0.00       0.00      0.000
8:30am            285          0          7         25         15       70.8       71.6      29.37       0.10       71.6       69.7       69.9       21.5       0.00       0.00      0.000
9:00am            259          0         11         24         19       71.0       77.9      29.37       0.10       77.9       69.8       76.4       32.4       0.00       0.00      0.000
9:30am            288          2         10         24         11       71.3       78.5      29.37       0.10       78.5       70.1       76.7       19.7       0.00       0.00      0.000
10:00am           325          0         12         24         10       71.6       78.9      29.36       0.10       78.9       70.4       77.0       17.8       0.00       0.00      0.000
10:30am           108          0         10         24         10       71.8       80.2      29.35       0.10       80.2       70.6       78.3       18.7       0.00       0.00      0.000
11:00am            85          4         13         24          9       71.8       84.1      29.34       0.10       84.1       70.6       81.2       19.2       0.00       0.00      0.000
11:30am            24          1         15         24         11       71.9       85.2      29.33       0.10       85.2       70.7       82.0       24.8       0.00       0.00      0.000
12:00pm           252          0          6         24          9       72.0       83.2      29.31       0.10       83.2       70.8       80.5       18.6       0.00       0.00      0.000
12:30pm           198          3         10         25         13       72.1       86.5      29.29       0.10       86.5       71.0       83.0       29.9       0.00       0.00      0.000
1:00pm            109          6         13         25          9       72.3       84.7      29.28       0.10       84.7       71.2       81.7       19.7       0.00       0.00      0.000
1:30pm             73          4         13         25          9       72.4       83.6      29.28       0.10       83.6       71.3       80.8       18.9       0.00       0.00      0.000
2:00pm            106          0         11         25          9       72.5       82.6      29.27       0.10       82.6       71.4       80.0       18.1       0.00       0.00      0.000
2:30pm            263          3         12         25         10       72.6       83.0      29.27       0.10       83.0       71.5       80.3       20.9       0.00       0.00      0.000
3:00pm             79          0          3         25         10       72.7       83.2      29.26       0.10       83.2       71.6       80.5       21.0       0.00       0.00      0.000
3:30pm            276          0          8         26         14       72.8       80.9      29.27       0.10       80.9       71.7       78.9       27.3       0.00       0.00      0.000
4:00pm            315          1          7         26         12       73.0       78.7      29.27       0.10       78.7       71.9       76.9       21.9       0.00       0.00      0.000
4:30pm             70          0          7         26         12       73.0       75.3      29.28       0.10       75.3       71.9       73.5       19.2       0.00       0.00      0.000
5:00pm            261          2          6         26         12       73.1       74.5      29.28       0.10       74.5       72.0       72.7       18.6       0.00       0.00      0.000
5:30pm            122          0          7         27         13       73.2       72.9      29.29       0.10       72.9       72.2       71.1       19.2       0.00       0.00      0.000
6:00pm            177          0          5         27         21       73.2       71.6      29.29       0.10       71.6       72.2       70.2       29.6       0.00       0.00      0.000
6:30pm            325          0          6         27         15       73.2       69.6      29.30       0.10       69.6       72.2       67.9       19.9       0.00       0.00      0.000
7:00pm            315          0          2         27         16       73.2       68.0      29.30       0.10       68.0       72.2       66.4       20.2       0.00       0.00      0.000
7:30pm             65          0          2         27         16       73.3       67.3      29.30       0.10       67.3       72.3       65.7       19.6       0.00       0.00      0.000
8:00pm            182          0          3         26         18       73.2       66.8      29.29       0.10       66.8       72.1       65.3       22.0       0.00       0.00      0.000
8:30pm             99          0          7         26         19       73.2       63.6      29.30       0.10       63.6       72.1       62.1       20.6       0.00       0.00      0.000
9:00pm            121          0          4         25         17       73.2       64.4      29.30       0.10       64.4       72.1       62.8       18.7       0.00       0.00      0.000
9:30pm            125          0          3         26         18       73.2       64.2      29.30       0.10       64.2       72.1       62.7       19.8       0.00       0.00      0.000
10:00pm           101          0          3         25         32       73.2       63.9      29.31       0.10       63.9       72.1       63.2       33.5       0.00       0.00      0.000
10:30pm            82          0          6         25         19       73.1       63.9      29.31       0.10       63.9       72.0       62.4       20.9       0.00       0.00      0.000
11:00pm            66          0          5         25         18       73.0       63.0      29.30       0.10       63.0       71.9       61.5       18.9       0.00       0.00      0.000
11:30pm           112          2          7         24         24       73.0       65.1      29.30       0.10       65.1       71.8       63.9       27.4       0.00       0.00      0.000